sensor_id;sensor_type;location;lat;lon;timestamp;pressure;altitude;pressure_sealevel;temperature;humidity
70200;BME280;57587;55.688;37.600;2022-11-15T00:01:32;100111.53;;;3.84;37.23
70200;BME280;57587;55.688;37.600;2022-11-15T00:04:18;100119.22;;;3.87;37.41
70200;BME280;57587;55.688;37.600;2022-11-15T00:07:03;100122.84;;;3.86;37.61
70200;BME280;57587;55.688;37.600;2022-11-15T00:09:49;100123.81;;;3.85;37.52
70200;BME280;57587;55.688;37.600;2022-11-15T00:12:34;100118.84;;;3.91;37.42
70200;BME280;57587;55.688;37.600;2022-11-15T00:15:20;100115.34;;;3.91;36.68
70200;BME280;57587;55.688;37.600;2022-11-15T00:18:11;100115.72;;;3.86;36.82
70200;BME280;57587;55.688;37.600;2022-11-15T00:21:07;100108.19;;;3.82;37.02
70200;BME280;57587;55.688;37.600;2022-11-15T00:23:53;100105.91;;;3.77;36.87
70200;BME280;57587;55.688;37.600;2022-11-15T00:26:38;100102.56;;;3.75;36.89
70200;BME280;57587;55.688;37.600;2022-11-15T00:29:24;100098.78;;;3.78;36.96
70200;BME280;57587;55.688;37.600;2022-11-15T00:32:10;100095.72;;;3.73;37.66
70200;BME280;57587;55.688;37.600;2022-11-15T00:34:56;100095.97;;;3.69;37.39
70200;BME280;57587;55.688;37.600;2022-11-15T00:37:41;100099.56;;;3.68;37.33
70200;BME280;57587;55.688;37.600;2022-11-15T00:40:27;100093.09;;;3.61;37.82
70200;BME280;57587;55.688;37.600;2022-11-15T00:43:13;100084.78;;;3.66;37.88
70200;BME280;57587;55.688;37.600;2022-11-15T00:45:59;100094.06;;;3.60;37.65
70200;BME280;57587;55.688;37.600;2022-11-15T00:48:48;100086.88;;;3.62;37.71
70200;BME280;57587;55.688;37.600;2022-11-15T00:51:33;100084.56;;;3.58;37.57
70200;BME280;57587;55.688;37.600;2022-11-15T00:54:19;100075.09;;;3.55;38.28
70200;BME280;57587;55.688;37.600;2022-11-15T00:57:04;100078.44;;;3.57;37.83
70200;BME280;57587;55.688;37.600;2022-11-15T00:59:49;100074.25;;;3.55;38.34
70200;BME280;57587;55.688;37.600;2022-11-15T01:02:36;100076.63;;;3.58;38.54
70200;BME280;57587;55.688;37.600;2022-11-15T01:05:21;100072.66;;;3.63;37.77
70200;BME280;57587;55.688;37.600;2022-11-15T01:08:12;100065.69;;;3.62;37.82
70200;BME280;57587;55.688;37.600;2022-11-15T01:11:11;100067.38;;;3.63;37.57
70200;BME280;57587;55.688;37.600;2022-11-15T01:13:57;100069.03;;;3.64;38.18
70200;BME280;57587;55.688;37.600;2022-11-15T01:16:43;100058.69;;;3.61;37.49
70200;BME280;57587;55.688;37.600;2022-11-15T01:19:29;100066.19;;;3.56;37.90
70200;BME280;57587;55.688;37.600;2022-11-15T01:22:15;100060.75;;;3.58;37.96
70200;BME280;57587;55.688;37.600;2022-11-15T01:25:02;100064.50;;;3.55;37.45
70200;BME280;57587;55.688;37.600;2022-11-15T01:27:48;100054.16;;;3.52;37.42
70200;BME280;57587;55.688;37.600;2022-11-15T01:30:35;100047.22;;;3.51;37.27
70200;BME280;57587;55.688;37.600;2022-11-15T01:33:22;100045.44;;;3.40;37.37
70200;BME280;57587;55.688;37.600;2022-11-15T01:36:11;100039.78;;;3.45;37.35
70200;BME280;57587;55.688;37.600;2022-11-15T01:38:58;100026.03;;;3.51;37.71
70200;BME280;57587;55.688;37.600;2022-11-15T01:41:44;100032.56;;;3.47;37.46
70200;BME280;57587;55.688;37.600;2022-11-15T01:44:49;100043.16;;;3.47;37.19
70200;BME280;57587;55.688;37.600;2022-11-15T01:47:41;100042.41;;;3.45;37.50
70200;BME280;57587;55.688;37.600;2022-11-15T01:50:31;100051.53;;;3.52;37.33
70200;BME280;57587;55.688;37.600;2022-11-15T01:53:19;100046.75;;;3.46;37.58
70200;BME280;57587;55.688;37.600;2022-11-15T01:56:09;100046.88;;;3.44;37.62
70200;BME280;57587;55.688;37.600;2022-11-15T01:58:58;100047.97;;;3.42;38.01
70200;BME280;57587;55.688;37.600;2022-11-15T02:01:47;100042.94;;;3.39;38.06
70200;BME280;57587;55.688;37.600;2022-11-15T02:08:37;100042.94;;;3.39;38.40
70200;BME280;57587;55.688;37.600;2022-11-15T02:11:22;100048.22;;;3.39;38.34
70200;BME280;57587;55.688;37.600;2022-11-15T02:14:08;100040.38;;;3.37;38.50
70200;BME280;57587;55.688;37.600;2022-11-15T02:17:22;100046.03;;;3.44;38.75
70200;BME280;57587;55.688;37.600;2022-11-15T02:32:40;100026.66;;;3.43;39.36
70200;BME280;57587;55.688;37.600;2022-11-15T02:38:59;100037.38;;;3.42;39.47
70200;BME280;57587;55.688;37.600;2022-11-15T02:41:55;100027.88;;;3.39;39.08
70200;BME280;57587;55.688;37.600;2022-11-15T02:44:45;100015.16;;;3.33;38.83
70200;BME280;57587;55.688;37.600;2022-11-15T02:47:35;100029.22;;;3.34;39.12
70200;BME280;57587;55.688;37.600;2022-11-15T02:50:27;100022.63;;;3.28;39.08
70200;BME280;57587;55.688;37.600;2022-11-15T02:53:15;100013.34;;;3.34;39.20
70200;BME280;57587;55.688;37.600;2022-11-15T02:56:00;100009.66;;;3.25;39.65
70200;BME280;57587;55.688;37.600;2022-11-15T02:59:12;100017.19;;;3.41;39.15
70200;BME280;57587;55.688;37.600;2022-11-15T03:05:45;100013.09;;;3.37;39.61
70200;BME280;57587;55.688;37.600;2022-11-15T03:08:42;100010.34;;;3.38;39.10
70200;BME280;57587;55.688;37.600;2022-11-15T03:11:37;100008.78;;;3.36;39.30
70200;BME280;57587;55.688;37.600;2022-11-15T03:14:35;100005.09;;;3.27;38.86
70200;BME280;57587;55.688;37.600;2022-11-15T03:17:32;100005.50;;;3.22;39.25
70200;BME280;57587;55.688;37.600;2022-11-15T03:20:20;99997.19;;;3.16;38.96
70200;BME280;57587;55.688;37.600;2022-11-15T03:23:09;99988.19;;;3.18;39.33
70200;BME280;57587;55.688;37.600;2022-11-15T03:25:58;99985.28;;;3.21;39.20
70200;BME280;57587;55.688;37.600;2022-11-15T03:28:54;99977.59;;;3.18;39.10
70200;BME280;57587;55.688;37.600;2022-11-15T03:31:47;99989.47;;;3.24;38.75
70200;BME280;57587;55.688;37.600;2022-11-15T03:40:42;99996.44;;;3.25;38.20
70200;BME280;57587;55.688;37.600;2022-11-15T03:43:36;99994.66;;;3.26;38.63
70200;BME280;57587;55.688;37.600;2022-11-15T03:46:27;99993.34;;;3.20;38.83
70200;BME280;57587;55.688;37.600;2022-11-15T03:49:34;99996.44;;;3.25;39.20
70200;BME280;57587;55.688;37.600;2022-11-15T03:52:21;99992.97;;;3.24;39.05
70200;BME280;57587;55.688;37.600;2022-11-15T03:55:11;99992.72;;;3.28;38.21
70200;BME280;57587;55.688;37.600;2022-11-15T03:57:59;99987.88;;;3.33;38.20
70200;BME280;57587;55.688;37.600;2022-11-15T04:00:46;99984.16;;;3.35;38.37
70200;BME280;57587;55.688;37.600;2022-11-15T04:03:31;99995.00;;;3.32;39.26
70200;BME280;57587;55.688;37.600;2022-11-15T04:06:17;99985.88;;;3.25;38.72
70200;BME280;57587;55.688;37.600;2022-11-15T04:09:03;99982.38;;;3.24;38.53
70200;BME280;57587;55.688;37.600;2022-11-15T04:11:49;99981.88;;;3.31;38.46
70200;BME280;57587;55.688;37.600;2022-11-15T04:14:34;99985.75;;;3.27;38.05
70200;BME280;57587;55.688;37.600;2022-11-15T04:17:20;99982.63;;;3.21;38.47
70200;BME280;57587;55.688;37.600;2022-11-15T04:20:12;99980.25;;;3.18;39.03
70200;BME280;57587;55.688;37.600;2022-11-15T04:23:18;99975.69;;;3.20;38.84
70200;BME280;57587;55.688;37.600;2022-11-15T04:26:23;99977.50;;;3.20;38.99
70200;BME280;57587;55.688;37.600;2022-11-15T04:29:08;99982.38;;;3.24;39.17
70200;BME280;57587;55.688;37.600;2022-11-15T04:32:13;99966.34;;;3.16;38.63
70200;BME280;57587;55.688;37.600;2022-11-15T04:34:58;99974.97;;;3.18;38.96
70200;BME280;57587;55.688;37.600;2022-11-15T04:37:44;99971.38;;;3.19;39.51
70200;BME280;57587;55.688;37.600;2022-11-15T04:40:34;99960.41;;;3.24;39.40
70200;BME280;57587;55.688;37.600;2022-11-15T04:43:20;99962.69;;;3.29;38.75
70200;BME280;57587;55.688;37.600;2022-11-15T04:46:05;99963.69;;;3.16;39.61
70200;BME280;57587;55.688;37.600;2022-11-15T04:48:51;99951.81;;;3.11;38.80
70200;BME280;57587;55.688;37.600;2022-11-15T04:51:43;99951.16;;;3.18;40.33
70200;BME280;57587;55.688;37.600;2022-11-15T04:54:28;99953.69;;;3.20;39.63
70200;BME280;57587;55.688;37.600;2022-11-15T04:57:14;99948.25;;;3.21;39.53
70200;BME280;57587;55.688;37.600;2022-11-15T05:00:02;99947.63;;;3.29;39.44
70200;BME280;57587;55.688;37.600;2022-11-15T05:02:48;99948.22;;;3.33;39.52
70200;BME280;57587;55.688;37.600;2022-11-15T05:05:52;99950.41;;;3.28;39.41
70200;BME280;57587;55.688;37.600;2022-11-15T05:08:38;99948.78;;;3.36;39.20
70200;BME280;57587;55.688;37.600;2022-11-15T05:11:23;99947.72;;;3.39;39.65
70200;BME280;57587;55.688;37.600;2022-11-15T05:14:09;99944.22;;;3.38;39.24
70200;BME280;57587;55.688;37.600;2022-11-15T05:16:55;99940.03;;;3.36;38.91
70200;BME280;57587;55.688;37.600;2022-11-15T05:19:41;99945.78;;;3.41;38.58
70200;BME280;57587;55.688;37.600;2022-11-15T05:22:28;99945.53;;;3.44;38.96
70200;BME280;57587;55.688;37.600;2022-11-15T05:25:14;99944.53;;;3.45;39.33
70200;BME280;57587;55.688;37.600;2022-11-15T05:28:00;99946.69;;;3.51;38.87
70200;BME280;57587;55.688;37.600;2022-11-15T05:30:45;99947.91;;;3.47;39.10
70200;BME280;57587;55.688;37.600;2022-11-15T05:33:31;99945.25;;;3.47;38.86
70200;BME280;57587;55.688;37.600;2022-11-15T05:36:38;99933.31;;;3.53;38.97
70200;BME280;57587;55.688;37.600;2022-11-15T05:39:26;99923.84;;;3.50;38.80
70200;BME280;57587;55.688;37.600;2022-11-15T05:42:14;99932.97;;;3.46;39.12
70200;BME280;57587;55.688;37.600;2022-11-15T05:45:02;99930.03;;;3.60;39.08
70200;BME280;57587;55.688;37.600;2022-11-15T05:47:50;99927.50;;;3.59;39.17
70200;BME280;57587;55.688;37.600;2022-11-15T05:50:40;99932.16;;;3.66;38.60
70200;BME280;57587;55.688;37.600;2022-11-15T05:53:27;99915.13;;;3.59;38.87
70200;BME280;57587;55.688;37.600;2022-11-15T05:56:13;99917.25;;;3.65;38.88
70200;BME280;57587;55.688;37.600;2022-11-15T05:58:59;99914.22;;;3.80;38.97
70200;BME280;57587;55.688;37.600;2022-11-15T06:01:45;99915.59;;;3.74;38.90
70200;BME280;57587;55.688;37.600;2022-11-15T06:04:30;99910.88;;;3.78;38.63
70200;BME280;57587;55.688;37.600;2022-11-15T06:07:16;99909.66;;;3.82;38.85
70200;BME280;57587;55.688;37.600;2022-11-15T06:10:02;99916.06;;;3.79;38.77
70200;BME280;57587;55.688;37.600;2022-11-15T06:12:58;99913.97;;;3.83;38.30
70200;BME280;57587;55.688;37.600;2022-11-15T06:15:44;99918.69;;;3.79;38.40
70200;BME280;57587;55.688;37.600;2022-11-15T06:18:32;99909.34;;;3.75;38.43
70200;BME280;57587;55.688;37.600;2022-11-15T06:21:19;99905.28;;;3.71;39.09
70200;BME280;57587;55.688;37.600;2022-11-15T06:24:05;99903.34;;;3.73;38.81
70200;BME280;57587;55.688;37.600;2022-11-15T06:26:51;99894.28;;;3.66;38.75
70200;BME280;57587;55.688;37.600;2022-11-15T06:29:37;99898.72;;;3.65;39.36
70200;BME280;57587;55.688;37.600;2022-11-15T06:32:22;99890.44;;;3.59;38.93
70200;BME280;57587;55.688;37.600;2022-11-15T06:35:08;99886.53;;;3.53;38.91
70200;BME280;57587;55.688;37.600;2022-11-15T06:37:54;99892.16;;;3.60;38.99
70200;BME280;57587;55.688;37.600;2022-11-15T06:40:39;99886.03;;;3.59;39.38
70200;BME280;57587;55.688;37.600;2022-11-15T06:43:25;99880.59;;;3.61;38.75
70200;BME280;57587;55.688;37.600;2022-11-15T06:46:11;99877.94;;;3.61;38.90
70200;BME280;57587;55.688;37.600;2022-11-15T06:48:56;99888.06;;;3.56;38.73
70200;BME280;57587;55.688;37.600;2022-11-15T06:51:42;99884.47;;;3.57;39.04
70200;BME280;57587;55.688;37.600;2022-11-15T06:54:28;99880.47;;;3.62;39.15
70200;BME280;57587;55.688;37.600;2022-11-15T06:57:13;99874.63;;;3.68;39.03
70200;BME280;57587;55.688;37.600;2022-11-15T06:59:59;99872.41;;;3.74;39.13
70200;BME280;57587;55.688;37.600;2022-11-15T07:02:46;99868.00;;;3.84;38.68
70200;BME280;57587;55.688;37.600;2022-11-15T07:05:32;99866.38;;;3.92;38.84
70200;BME280;57587;55.688;37.600;2022-11-15T07:08:18;99869.63;;;4.06;38.72
70200;BME280;57587;55.688;37.600;2022-11-15T07:11:06;99872.56;;;4.12;38.61
70200;BME280;57587;55.688;37.600;2022-11-15T07:13:52;99863.38;;;4.16;38.16
70200;BME280;57587;55.688;37.600;2022-11-15T07:16:38;99854.88;;;4.23;38.18
70200;BME280;57587;55.688;37.600;2022-11-15T07:19:24;99859.06;;;4.15;37.17
70200;BME280;57587;55.688;37.600;2022-11-15T07:22:09;99863.91;;;4.10;38.28
70200;BME280;57587;55.688;37.600;2022-11-15T07:24:54;99853.75;;;4.15;38.51
70200;BME280;57587;55.688;37.600;2022-11-15T07:27:40;99864.91;;;4.09;37.99
70200;BME280;57587;55.688;37.600;2022-11-15T07:30:26;99858.31;;;4.04;38.25
70200;BME280;57587;55.688;37.600;2022-11-15T07:33:12;99856.41;;;4.06;38.15
70200;BME280;57587;55.688;37.600;2022-11-15T07:36:01;99854.41;;;3.98;37.80
70200;BME280;57587;55.688;37.600;2022-11-15T07:38:47;99840.72;;;3.93;37.50
70200;BME280;57587;55.688;37.600;2022-11-15T07:41:33;99839.31;;;3.89;37.80
70200;BME280;57587;55.688;37.600;2022-11-15T07:44:18;99834.03;;;3.89;38.19
70200;BME280;57587;55.688;37.600;2022-11-15T07:47:04;99829.00;;;3.86;38.39
70200;BME280;57587;55.688;37.600;2022-11-15T07:49:50;99829.00;;;3.86;38.26
70200;BME280;57587;55.688;37.600;2022-11-15T07:52:35;99828.94;;;3.66;38.28
70200;BME280;57587;55.688;37.600;2022-11-15T07:55:24;99814.94;;;3.45;38.46
70200;BME280;57587;55.688;37.600;2022-11-15T07:58:11;99819.22;;;3.15;38.90
70200;BME280;57587;55.688;37.600;2022-11-15T08:00:57;99818.38;;;3.36;38.90
70200;BME280;57587;55.688;37.600;2022-11-15T08:03:42;99813.00;;;3.47;39.19
70200;BME280;57587;55.688;37.600;2022-11-15T08:06:28;99817.69;;;3.43;39.40
70200;BME280;57587;55.688;37.600;2022-11-15T08:09:14;99810.50;;;3.55;39.04
70200;BME280;57587;55.688;37.600;2022-11-15T08:11:59;99818.09;;;3.69;39.51
70200;BME280;57587;55.688;37.600;2022-11-15T08:14:44;99809.66;;;3.85;39.51
70200;BME280;57587;55.688;37.600;2022-11-15T08:17:33;99812.59;;;3.92;39.10
70200;BME280;57587;55.688;37.600;2022-11-15T08:20:19;99807.59;;;3.99;38.23
70200;BME280;57587;55.688;37.600;2022-11-15T08:23:05;99814.84;;;4.06;38.68
70200;BME280;57587;55.688;37.600;2022-11-15T08:25:50;99812.34;;;4.14;38.15
70200;BME280;57587;55.688;37.600;2022-11-15T08:28:36;99807.91;;;4.15;37.74
70200;BME280;57587;55.688;37.600;2022-11-15T08:31:21;99796.16;;;4.08;37.87
70200;BME280;57587;55.688;37.600;2022-11-15T08:34:07;99798.53;;;4.01;37.86
70200;BME280;57587;55.688;37.600;2022-11-15T08:36:53;99792.94;;;3.85;38.13
70200;BME280;57587;55.688;37.600;2022-11-15T08:39:39;99796.69;;;3.82;38.50
70200;BME280;57587;55.688;37.600;2022-11-15T08:42:24;99787.78;;;3.93;38.92
70200;BME280;57587;55.688;37.600;2022-11-15T08:45:10;99796.66;;;3.73;38.98
70200;BME280;57587;55.688;37.600;2022-11-15T08:47:56;99782.47;;;3.93;38.80
70200;BME280;57587;55.688;37.600;2022-11-15T08:50:42;99771.88;;;3.93;38.50
70200;BME280;57587;55.688;37.600;2022-11-15T08:53:28;99782.75;;;3.90;38.26
70200;BME280;57587;55.688;37.600;2022-11-15T08:56:15;99783.72;;;3.89;38.67
70200;BME280;57587;55.688;37.600;2022-11-15T08:59:00;99778.19;;;4.02;38.42
70200;BME280;57587;55.688;37.600;2022-11-15T09:01:45;99781.81;;;4.10;38.17
70200;BME280;57587;55.688;37.600;2022-11-15T09:04:31;99782.53;;;4.12;38.33
70200;BME280;57587;55.688;37.600;2022-11-15T09:07:17;99773.59;;;4.13;38.13
70200;BME280;57587;55.688;37.600;2022-11-15T09:10:03;99772.34;;;4.18;37.97
70200;BME280;57587;55.688;37.600;2022-11-15T09:12:49;99766.94;;;4.19;38.02
70200;BME280;57587;55.688;37.600;2022-11-15T09:15:35;99764.94;;;3.92;38.29
70200;BME280;57587;55.688;37.600;2022-11-15T09:18:20;99759.19;;;3.87;37.94
70200;BME280;57587;55.688;37.600;2022-11-15T09:21:08;99757.16;;;3.90;38.48
70200;BME280;57587;55.688;37.600;2022-11-15T09:23:54;99751.00;;;3.90;38.46
70200;BME280;57587;55.688;37.600;2022-11-15T09:26:40;99742.22;;;3.89;38.88
70200;BME280;57587;55.688;37.600;2022-11-15T09:29:26;99736.94;;;3.99;38.91
70200;BME280;57587;55.688;37.600;2022-11-15T09:32:11;99745.19;;;4.06;39.39
70200;BME280;57587;55.688;37.600;2022-11-15T09:34:57;99742.94;;;4.11;38.72
70200;BME280;57587;55.688;37.600;2022-11-15T09:37:43;99741.56;;;4.07;38.23
70200;BME280;57587;55.688;37.600;2022-11-15T09:40:30;99734.44;;;3.98;39.10
70200;BME280;57587;55.688;37.600;2022-11-15T09:49:43;99733.81;;;3.75;39.21
70200;BME280;57587;55.688;37.600;2022-11-15T09:52:19;99735.25;;;3.88;39.23
70200;BME280;57587;55.688;37.600;2022-11-15T09:54:49;99730.22;;;3.26;40.04
70200;BME280;57587;55.688;37.600;2022-11-15T09:57:31;99736.13;;;3.49;40.07
70200;BME280;57587;55.688;37.600;2022-11-15T10:05:39;99719.75;;;3.64;40.02
70200;BME280;57587;55.688;37.600;2022-11-15T10:08:31;99731.44;;;3.62;39.60
70200;BME280;57587;55.688;37.600;2022-11-15T10:11:04;99721.09;;;3.49;40.00
70200;BME280;57587;55.688;37.600;2022-11-15T10:13:59;99721.38;;;3.46;40.20
70200;BME280;57587;55.688;37.600;2022-11-15T10:19:21;99720.81;;;3.52;39.89
70200;BME280;57587;55.688;37.600;2022-11-15T10:22:11;99703.84;;;3.55;40.22
70200;BME280;57587;55.688;37.600;2022-11-15T10:24:45;99706.19;;;3.48;40.25
70200;BME280;57587;55.688;37.600;2022-11-15T10:27:17;99691.38;;;3.26;40.21
70200;BME280;57587;55.688;37.600;2022-11-15T10:29:47;99682.78;;;3.03;40.77
70200;BME280;57587;55.688;37.600;2022-11-15T10:32:17;99691.31;;;3.07;41.08
70200;BME280;57587;55.688;37.600;2022-11-15T10:34:46;99689.53;;;3.17;40.63
70200;BME280;57587;55.688;37.600;2022-11-15T10:37:13;99678.41;;;3.13;41.11
70200;BME280;57587;55.688;37.600;2022-11-15T10:39:40;99671.88;;;2.87;41.37
70200;BME280;57587;55.688;37.600;2022-11-15T10:42:18;99675.84;;;3.02;41.34
70200;BME280;57587;55.688;37.600;2022-11-15T10:44:51;99665.88;;;3.15;41.13
70200;BME280;57587;55.688;37.600;2022-11-15T10:47:24;99662.16;;;3.28;40.95
70200;BME280;57587;55.688;37.600;2022-11-15T10:49:55;99661.72;;;3.22;41.21
70200;BME280;57587;55.688;37.600;2022-11-15T10:52:23;99655.47;;;3.33;40.94
70200;BME280;57587;55.688;37.600;2022-11-15T10:57:27;99651.44;;;3.29;40.82
70200;BME280;57587;55.688;37.600;2022-11-15T10:59:59;99654.81;;;3.41;41.28
70200;BME280;57587;55.688;37.600;2022-11-15T11:02:37;99651.75;;;3.36;41.00
70200;BME280;57587;55.688;37.600;2022-11-15T11:05:43;99644.50;;;3.38;40.72
70200;BME280;57587;55.688;37.600;2022-11-15T11:10:38;99631.66;;;3.23;41.57
70200;BME280;57587;55.688;37.600;2022-11-15T11:13:30;99640.88;;;3.39;41.22
70200;BME280;57587;55.688;37.600;2022-11-15T11:19:08;99624.91;;;3.50;40.87
70200;BME280;57587;55.688;37.600;2022-11-15T11:27:13;99620.56;;;3.59;40.48
70200;BME280;57587;55.688;37.600;2022-11-15T11:40:58;99613.78;;;3.56;40.62
70200;BME280;57587;55.688;37.600;2022-11-15T11:43:48;99603.44;;;3.43;41.36
70200;BME280;57587;55.688;37.600;2022-11-15T11:48:58;99617.19;;;3.37;42.05
70200;BME280;57587;55.688;37.600;2022-11-15T11:51:34;99610.69;;;3.41;42.34
70200;BME280;57587;55.688;37.600;2022-11-15T11:57:25;99598.81;;;3.16;43.19
70200;BME280;57587;55.688;37.600;2022-11-15T12:00:09;99606.47;;;3.19;43.76
70200;BME280;57587;55.688;37.600;2022-11-15T12:02:42;99597.84;;;3.17;43.97
70200;BME280;57587;55.688;37.600;2022-11-15T12:10:53;99599.06;;;3.04;44.92
70200;BME280;57587;55.688;37.600;2022-11-15T12:13:26;99596.28;;;3.15;45.60
70200;BME280;57587;55.688;37.600;2022-11-15T12:16:05;99585.72;;;3.15;45.81
70200;BME280;57587;55.688;37.600;2022-11-15T12:18:37;99585.88;;;3.13;45.94
70200;BME280;57587;55.688;37.600;2022-11-15T12:21:13;99575.28;;;3.13;46.58
70200;BME280;57587;55.688;37.600;2022-11-15T12:23:48;99566.44;;;2.84;47.35
70200;BME280;57587;55.688;37.600;2022-11-15T12:26:37;99576.03;;;2.85;47.09
70200;BME280;57587;55.688;37.600;2022-11-15T12:29:19;99572.59;;;2.94;47.80
70200;BME280;57587;55.688;37.600;2022-11-15T12:31:50;99560.88;;;2.87;47.90
70200;BME280;57587;55.688;37.600;2022-11-15T12:36:45;99564.06;;;2.81;47.82
70200;BME280;57587;55.688;37.600;2022-11-15T12:39:14;99564.06;;;2.81;47.89
70200;BME280;57587;55.688;37.600;2022-11-15T12:41:44;99560.31;;;2.83;47.13
70200;BME280;57587;55.688;37.600;2022-11-15T12:47:22;99555.97;;;2.72;47.50
70200;BME280;57587;55.688;37.600;2022-11-15T12:49:50;99547.44;;;2.59;49.11
70200;BME280;57587;55.688;37.600;2022-11-15T12:52:19;99528.13;;;2.59;49.38
70200;BME280;57587;55.688;37.600;2022-11-15T12:54:53;99541.78;;;2.64;49.85
70200;BME280;57587;55.688;37.600;2022-11-15T12:57:31;99539.97;;;2.64;49.91
70200;BME280;57587;55.688;37.600;2022-11-15T13:03:18;99545.22;;;2.54;51.79
70200;BME280;57587;55.688;37.600;2022-11-15T13:05:59;99531.75;;;2.58;52.41
70200;BME280;57587;55.688;37.600;2022-11-15T13:08:41;99532.97;;;2.53;51.92
70200;BME280;57587;55.688;37.600;2022-11-15T13:11:43;99521.28;;;2.56;52.43
70200;BME280;57587;55.688;37.600;2022-11-15T13:14:39;99517.13;;;2.63;52.60
70200;BME280;57587;55.688;37.600;2022-11-15T13:17:17;99520.53;;;2.75;52.94
70200;BME280;57587;55.688;37.600;2022-11-15T13:20:01;99517.72;;;2.67;52.73
70200;BME280;57587;55.688;37.600;2022-11-15T13:22:50;99511.22;;;2.40;53.84
70200;BME280;57587;55.688;37.600;2022-11-15T13:28:21;99506.31;;;2.26;55.69
70200;BME280;57587;55.688;37.600;2022-11-15T13:33:25;99508.47;;;2.11;56.10
70200;BME280;57587;55.688;37.600;2022-11-15T13:36:05;99499.38;;;2.04;57.06
70200;BME280;57587;55.688;37.600;2022-11-15T13:38:35;99511.19;;;2.00;57.57
70200;BME280;57587;55.688;37.600;2022-11-15T13:41:23;99500.00;;;1.87;57.09
70200;BME280;57587;55.688;37.600;2022-11-15T13:43:52;99503.44;;;1.77;58.19
70200;BME280;57587;55.688;37.600;2022-11-15T13:49:03;99502.38;;;1.48;59.82
70200;BME280;57587;55.688;37.600;2022-11-15T13:51:52;99486.97;;;1.11;60.42
70200;BME280;57587;55.688;37.600;2022-11-15T13:54:31;99492.38;;;1.09;59.00
70200;BME280;57587;55.688;37.600;2022-11-15T13:57:15;99480.34;;;0.84;60.16
70200;BME280;57587;55.688;37.600;2022-11-15T13:59:47;99484.66;;;0.85;60.69
70200;BME280;57587;55.688;37.600;2022-11-15T14:02:31;99470.75;;;0.83;60.29
70200;BME280;57587;55.688;37.600;2022-11-15T14:05:17;99476.97;;;0.94;60.80
70200;BME280;57587;55.688;37.600;2022-11-15T14:10:44;99483.50;;;0.56;60.01
70200;BME280;57587;55.688;37.600;2022-11-15T14:13:27;99477.66;;;0.52;61.62
70200;BME280;57587;55.688;37.600;2022-11-15T14:16:18;99484.50;;;0.43;61.42
70200;BME280;57587;55.688;37.600;2022-11-15T14:18:50;99479.09;;;0.34;61.81
70200;BME280;57587;55.688;37.600;2022-11-15T14:21:19;99474.72;;;0.34;62.51
70200;BME280;57587;55.688;37.600;2022-11-15T14:23:47;99472.31;;;0.20;62.10
70200;BME280;57587;55.688;37.600;2022-11-15T14:26:31;99471.13;;;0.13;62.51
70200;BME280;57587;55.688;37.600;2022-11-15T14:31:50;99459.16;;;0.31;63.76
70200;BME280;57587;55.688;37.600;2022-11-15T14:34:18;99464.53;;;0.41;63.93
70200;BME280;57587;55.688;37.600;2022-11-15T14:36:50;99453.03;;;0.42;64.26
70200;BME280;57587;55.688;37.600;2022-11-15T14:39:19;99451.22;;;0.42;64.02
70200;BME280;57587;55.688;37.600;2022-11-15T14:41:47;99459.25;;;0.41;63.97
70200;BME280;57587;55.688;37.600;2022-11-15T14:44:14;99457.00;;;0.25;63.80
70200;BME280;57587;55.688;37.600;2022-11-15T14:46:45;99445.88;;;0.10;64.34
70200;BME280;57587;55.688;37.600;2022-11-15T14:49:12;99436.69;;;0.05;64.88
70200;BME280;57587;55.688;37.600;2022-11-15T14:51:39;99434.88;;;0.05;65.00
70200;BME280;57587;55.688;37.600;2022-11-15T14:54:09;99420.66;;;0.19;65.15
70200;BME280;57587;55.688;37.600;2022-11-15T14:56:37;99422.31;;;0.31;65.10
70200;BME280;57587;55.688;37.600;2022-11-15T14:59:06;99423.00;;;0.33;64.44
70200;BME280;57587;55.688;37.600;2022-11-15T15:01:34;99416.06;;;0.43;64.87
70200;BME280;57587;55.688;37.600;2022-11-15T15:04:01;99421.44;;;0.31;64.25
70200;BME280;57587;55.688;37.600;2022-11-15T15:06:31;99428.41;;;0.32;64.22
70200;BME280;57587;55.688;37.600;2022-11-15T15:09:02;99419.19;;;0.26;65.11
70200;BME280;57587;55.688;37.600;2022-11-15T15:11:34;99421.44;;;0.31;63.83
70200;BME280;57587;55.688;37.600;2022-11-15T15:14:04;99407.22;;;0.44;63.01
70200;BME280;57587;55.688;37.600;2022-11-15T15:16:34;99404.00;;;0.30;63.13
70200;BME280;57587;55.688;37.600;2022-11-15T15:19:01;99414.97;;;0.46;63.65
70200;BME280;57587;55.688;37.600;2022-11-15T15:21:28;99409.34;;;0.39;64.32
70200;BME280;57587;55.688;37.600;2022-11-15T15:24:03;99408.88;;;0.45;64.40
70200;BME280;57587;55.688;37.600;2022-11-15T15:26:30;99397.78;;;0.31;65.02
70200;BME280;57587;55.688;37.600;2022-11-15T15:29:01;99390.94;;;0.39;64.22
70200;BME280;57587;55.688;37.600;2022-11-15T15:31:29;99401.03;;;0.34;65.28
70200;BME280;57587;55.688;37.600;2022-11-15T15:33:57;99393.81;;;0.36;65.22
70200;BME280;57587;55.688;37.600;2022-11-15T15:36:25;99393.06;;;0.45;64.62
70200;BME280;57587;55.688;37.600;2022-11-15T15:38:53;99381.13;;;0.41;64.79
70200;BME280;57587;55.688;37.600;2022-11-15T15:41:20;99388.06;;;0.42;65.08
70200;BME280;57587;55.688;37.600;2022-11-15T15:43:47;99391.16;;;0.48;64.80
70200;BME280;57587;55.688;37.600;2022-11-15T15:46:16;99379.47;;;0.40;64.56
70200;BME280;57587;55.688;37.600;2022-11-15T15:48:44;99374.81;;;0.21;64.97
70200;BME280;57587;55.688;37.600;2022-11-15T15:51:12;99363.72;;;0.18;65.30
70200;BME280;57587;55.688;37.600;2022-11-15T15:53:47;99373.75;;;0.24;65.86
70200;BME280;57587;55.688;37.600;2022-11-15T15:56:18;99360.84;;;0.21;65.56
70200;BME280;57587;55.688;37.600;2022-11-15T15:58:45;99359.91;;;-0.01;66.15
70200;BME280;57587;55.688;37.600;2022-11-15T16:01:12;99353.69;;;0.12;65.98
70200;BME280;57587;55.688;37.600;2022-11-15T16:03:40;99352.00;;;0.22;65.52